sensor_id;sensor_type;location;lat;lon;timestamp;P1;durP1;ratioP1;P2;durP2;ratioP2
15116;SDS011;7659;51.038;13.786;2023-08-21T00:01:52;6.93;;;4.95;;
15116;SDS011;7659;51.038;13.786;2023-08-21T00:04:17;7.97;;;5.18;;
15116;SDS011;7659;51.038;13.786;2023-08-21T00:06:43;10.23;;;5.30;;
15116;SDS011;7659;51.038;13.786;2023-08-21T00:09:08;7.57;;;5.50;;
15116;SDS011;7659;51.038;13.786;2023-08-21T00:11:34;14.35;;;10.32;;
15116;SDS011;7659;51.038;13.786;2023-08-21T00:14:00;11.77;;;9.88;;
15116;SDS011;7659;51.038;13.786;2023-08-21T00:16:25;5.50;;;5.00;;
15116;SDS011;7659;51.038;13.786;2023-08-21T00:18:52;7.15;;;5.20;;
15116;SDS011;7659;51.038;13.786;2023-08-21T00:21:18;8.35;;;5.20;;
15116;SDS011;7659;51.038;13.786;2023-08-21T00:23:43;9.23;;;5.30;;
15116;SDS011;7659;51.038;13.786;2023-08-21T00:26:09;9.68;;;5.20;;
15116;SDS011;7659;51.038;13.786;2023-08-21T00:28:35;6.10;;;5.38;;
15116;SDS011;7659;51.038;13.786;2023-08-21T00:31:04;6.32;;;4.63;;
15116;SDS011;7659;51.038;13.786;2023-08-21T00:33:33;7.38;;;4.95;;
15116;SDS011;7659;51.038;13.786;2023-08-21T00:35:58;8.75;;;5.25;;
15116;SDS011;7659;51.038;13.786;2023-08-21T00:38:24;6.95;;;4.80;;
15116;SDS011;7659;51.038;13.786;2023-08-21T00:40:50;9.32;;;4.88;;
15116;SDS011;7659;51.038;13.786;2023-08-21T00:43:15;9.02;;;4.60;;
15116;SDS011;7659;51.038;13.786;2023-08-21T00:45:42;6.50;;;4.65;;
15116;SDS011;7659;51.038;13.786;2023-08-21T00:48:08;6.25;;;4.80;;
15116;SDS011;7659;51.038;13.786;2023-08-21T00:50:33;8.20;;;4.82;;
15116;SDS011;7659;51.038;13.786;2023-08-21T00:52:59;4.75;;;4.28;;
15116;SDS011;7659;51.038;13.786;2023-08-21T00:55:24;6.95;;;4.75;;
15116;SDS011;7659;51.038;13.786;2023-08-21T00:57:50;9.20;;;4.93;;
15116;SDS011;7659;51.038;13.786;2023-08-21T01:00:15;10.43;;;4.65;;
15116;SDS011;7659;51.038;13.786;2023-08-21T01:02:41;7.88;;;4.63;;
15116;SDS011;7659;51.038;13.786;2023-08-21T01:05:07;10.23;;;4.43;;
15116;SDS011;7659;51.038;13.786;2023-08-21T01:07:36;6.45;;;4.93;;
15116;SDS011;7659;51.038;13.786;2023-08-21T01:10:12;7.15;;;4.43;;
15116;SDS011;7659;51.038;13.786;2023-08-21T01:12:46;8.48;;;4.93;;
15116;SDS011;7659;51.038;13.786;2023-08-21T01:15:14;6.22;;;4.70;;
15116;SDS011;7659;51.038;13.786;2023-08-21T01:17:39;7.18;;;4.55;;
15116;SDS011;7659;51.038;13.786;2023-08-21T01:20:06;6.40;;;4.55;;
15116;SDS011;7659;51.038;13.786;2023-08-21T01:22:35;6.45;;;5.28;;
15116;SDS011;7659;51.038;13.786;2023-08-21T01:25:01;7.78;;;4.80;;
15116;SDS011;7659;51.038;13.786;2023-08-21T01:27:27;6.93;;;4.68;;
15116;SDS011;7659;51.038;13.786;2023-08-21T01:29:53;7.50;;;4.50;;
15116;SDS011;7659;51.038;13.786;2023-08-21T01:32:29;10.95;;;5.18;;
15116;SDS011;7659;51.038;13.786;2023-08-21T01:34:58;9.32;;;4.78;;
15116;SDS011;7659;51.038;13.786;2023-08-21T01:37:24;9.98;;;5.00;;
15116;SDS011;7659;51.038;13.786;2023-08-21T01:39:51;6.80;;;5.53;;
15116;SDS011;7659;51.038;13.786;2023-08-21T01:42:16;8.88;;;5.53;;
15116;SDS011;7659;51.038;13.786;2023-08-21T01:44:42;6.65;;;5.05;;
15116;SDS011;7659;51.038;13.786;2023-08-21T01:47:11;6.10;;;5.32;;
15116;SDS011;7659;51.038;13.786;2023-08-21T01:49:36;8.05;;;5.45;;
15116;SDS011;7659;51.038;13.786;2023-08-21T01:52:02;8.38;;;5.28;;
15116;SDS011;7659;51.038;13.786;2023-08-21T01:54:27;9.15;;;5.40;;
15116;SDS011;7659;51.038;13.786;2023-08-21T01:56:53;8.05;;;5.80;;
15116;SDS011;7659;51.038;13.786;2023-08-21T01:59:19;7.30;;;4.80;;
15116;SDS011;7659;51.038;13.786;2023-08-21T02:01:44;8.68;;;5.57;;
15116;SDS011;7659;51.038;13.786;2023-08-21T02:04:10;6.85;;;5.38;;
15116;SDS011;7659;51.038;13.786;2023-08-21T02:06:35;7.72;;;5.30;;
15116;SDS011;7659;51.038;13.786;2023-08-21T02:09:01;10.35;;;5.20;;
15116;SDS011;7659;51.038;13.786;2023-08-21T02:11:26;9.18;;;5.80;;
15116;SDS011;7659;51.038;13.786;2023-08-21T02:13:52;7.47;;;5.18;;
15116;SDS011;7659;51.038;13.786;2023-08-21T02:16:17;7.95;;;5.78;;
15116;SDS011;7659;51.038;13.786;2023-08-21T02:18:43;6.72;;;5.20;;
15116;SDS011;7659;51.038;13.786;2023-08-21T02:21:08;9.13;;;5.47;;
15116;SDS011;7659;51.038;13.786;2023-08-21T02:23:34;5.78;;;5.18;;
15116;SDS011;7659;51.038;13.786;2023-08-21T02:25:59;9.75;;;5.53;;
15116;SDS011;7659;51.038;13.786;2023-08-21T02:28:25;9.73;;;5.50;;
15116;SDS011;7659;51.038;13.786;2023-08-21T02:30:50;7.88;;;5.38;;
15116;SDS011;7659;51.038;13.786;2023-08-21T02:33:16;7.90;;;5.45;;
15116;SDS011;7659;51.038;13.786;2023-08-21T02:35:43;6.10;;;5.50;;
15116;SDS011;7659;51.038;13.786;2023-08-21T02:38:08;8.73;;;5.43;;
15116;SDS011;7659;51.038;13.786;2023-08-21T02:40:35;8.38;;;5.47;;
15116;SDS011;7659;51.038;13.786;2023-08-21T02:43:01;6.50;;;5.30;;
15116;SDS011;7659;51.038;13.786;2023-08-21T02:45:26;7.80;;;5.47;;
15116;SDS011;7659;51.038;13.786;2023-08-21T02:47:52;8.10;;;5.40;;
15116;SDS011;7659;51.038;13.786;2023-08-21T02:50:17;6.45;;;5.65;;
15116;SDS011;7659;51.038;13.786;2023-08-21T02:52:43;7.50;;;5.38;;
15116;SDS011;7659;51.038;13.786;2023-08-21T02:55:08;8.55;;;5.78;;
15116;SDS011;7659;51.038;13.786;2023-08-21T02:57:34;8.95;;;5.60;;
15116;SDS011;7659;51.038;13.786;2023-08-21T02:59:59;7.65;;;5.78;;
15116;SDS011;7659;51.038;13.786;2023-08-21T03:02:25;6.90;;;5.63;;
15116;SDS011;7659;51.038;13.786;2023-08-21T03:04:51;8.73;;;5.55;;
15116;SDS011;7659;51.038;13.786;2023-08-21T03:07:16;12.93;;;5.90;;
15116;SDS011;7659;51.038;13.786;2023-08-21T03:09:44;7.93;;;5.70;;
15116;SDS011;7659;51.038;13.786;2023-08-21T03:12:10;10.23;;;5.78;;
15116;SDS011;7659;51.038;13.786;2023-08-21T03:14:35;7.65;;;5.82;;
15116;SDS011;7659;51.038;13.786;2023-08-21T03:17:01;10.88;;;6.15;;
15116;SDS011;7659;51.038;13.786;2023-08-21T03:19:27;7.47;;;5.43;;
15116;SDS011;7659;51.038;13.786;2023-08-21T03:21:53;7.22;;;5.75;;
15116;SDS011;7659;51.038;13.786;2023-08-21T03:24:19;8.38;;;5.13;;
15116;SDS011;7659;51.038;13.786;2023-08-21T03:26:44;6.70;;;5.57;;
15116;SDS011;7659;51.038;13.786;2023-08-21T03:29:10;8.80;;;6.15;;
15116;SDS011;7659;51.038;13.786;2023-08-21T03:31:36;9.43;;;5.78;;
15116;SDS011;7659;51.038;13.786;2023-08-21T03:34:01;6.95;;;5.80;;
15116;SDS011;7659;51.038;13.786;2023-08-21T03:36:27;8.68;;;6.07;;
15116;SDS011;7659;51.038;13.786;2023-08-21T03:38:57;8.82;;;6.65;;
15116;SDS011;7659;51.038;13.786;2023-08-21T03:41:24;10.40;;;6.72;;
15116;SDS011;7659;51.038;13.786;2023-08-21T03:43:50;10.77;;;7.00;;
15116;SDS011;7659;51.038;13.786;2023-08-21T03:46:15;10.27;;;7.30;;
15116;SDS011;7659;51.038;13.786;2023-08-21T03:48:41;8.98;;;7.07;;
15116;SDS011;7659;51.038;13.786;2023-08-21T03:51:06;10.68;;;6.75;;
15116;SDS011;7659;51.038;13.786;2023-08-21T03:53:32;8.13;;;6.43;;
15116;SDS011;7659;51.038;13.786;2023-08-21T03:55:59;7.03;;;5.70;;
15116;SDS011;7659;51.038;13.786;2023-08-21T03:58:25;7.32;;;5.53;;
15116;SDS011;7659;51.038;13.786;2023-08-21T04:00:52;8.90;;;5.70;;
15116;SDS011;7659;51.038;13.786;2023-08-21T04:03:18;8.45;;;5.82;;
15116;SDS011;7659;51.038;13.786;2023-08-21T04:05:44;10.02;;;5.80;;
15116;SDS011;7659;51.038;13.786;2023-08-21T04:08:10;11.10;;;5.93;;
15116;SDS011;7659;51.038;13.786;2023-08-21T04:10:35;10.48;;;5.80;;
15116;SDS011;7659;51.038;13.786;2023-08-21T04:13:00;7.47;;;5.85;;
15116;SDS011;7659;51.038;13.786;2023-08-21T04:15:26;12.18;;;6.00;;
15116;SDS011;7659;51.038;13.786;2023-08-21T04:17:52;7.28;;;6.15;;
15116;SDS011;7659;51.038;13.786;2023-08-21T04:20:18;10.40;;;6.95;;
15116;SDS011;7659;51.038;13.786;2023-08-21T04:22:44;9.98;;;6.03;;
15116;SDS011;7659;51.038;13.786;2023-08-21T04:25:10;11.75;;;6.70;;
15116;SDS011;7659;51.038;13.786;2023-08-21T04:27:36;9.32;;;6.97;;
15116;SDS011;7659;51.038;13.786;2023-08-21T04:30:02;10.30;;;6.30;;
15116;SDS011;7659;51.038;13.786;2023-08-21T04:32:28;13.80;;;6.55;;
15116;SDS011;7659;51.038;13.786;2023-08-21T04:34:54;11.15;;;6.20;;
15116;SDS011;7659;51.038;13.786;2023-08-21T04:37:20;9.32;;;6.00;;
15116;SDS011;7659;51.038;13.786;2023-08-21T04:39:49;8.40;;;5.97;;
15116;SDS011;7659;51.038;13.786;2023-08-21T04:42:15;11.27;;;7.15;;
15116;SDS011;7659;51.038;13.786;2023-08-21T04:44:41;11.25;;;6.82;;
15116;SDS011;7659;51.038;13.786;2023-08-21T04:47:20;11.93;;;5.75;;
15116;SDS011;7659;51.038;13.786;2023-08-21T04:49:47;12.13;;;7.70;;
15116;SDS011;7659;51.038;13.786;2023-08-21T04:52:13;10.25;;;6.78;;
15116;SDS011;7659;51.038;13.786;2023-08-21T04:54:38;15.50;;;7.72;;
15116;SDS011;7659;51.038;13.786;2023-08-21T04:57:04;14.60;;;7.50;;
15116;SDS011;7659;51.038;13.786;2023-08-21T04:59:30;10.07;;;7.30;;
15116;SDS011;7659;51.038;13.786;2023-08-21T05:01:55;9.32;;;7.70;;
15116;SDS011;7659;51.038;13.786;2023-08-21T05:04:21;9.25;;;7.88;;
15116;SDS011;7659;51.038;13.786;2023-08-21T05:06:48;10.95;;;8.35;;
15116;SDS011;7659;51.038;13.786;2023-08-21T05:09:14;10.43;;;9.20;;
15116;SDS011;7659;51.038;13.786;2023-08-21T05:11:41;13.00;;;9.05;;
15116;SDS011;7659;51.038;13.786;2023-08-21T05:14:06;12.88;;;8.65;;
15116;SDS011;7659;51.038;13.786;2023-08-21T05:16:32;11.02;;;8.60;;
15116;SDS011;7659;51.038;13.786;2023-08-21T05:18:59;14.93;;;9.45;;
15116;SDS011;7659;51.038;13.786;2023-08-21T05:21:24;11.15;;;8.95;;
15116;SDS011;7659;51.038;13.786;2023-08-21T05:23:50;13.43;;;8.63;;
15116;SDS011;7659;51.038;13.786;2023-08-21T05:26:16;11.20;;;8.10;;
15116;SDS011;7659;51.038;13.786;2023-08-21T05:28:41;11.55;;;8.82;;
15116;SDS011;7659;51.038;13.786;2023-08-21T05:31:07;10.65;;;8.30;;
15116;SDS011;7659;51.038;13.786;2023-08-21T05:33:44;11.48;;;8.60;;
15116;SDS011;7659;51.038;13.786;2023-08-21T05:36:10;13.07;;;9.05;;
15116;SDS011;7659;51.038;13.786;2023-08-21T05:38:37;11.77;;;8.50;;
15116;SDS011;7659;51.038;13.786;2023-08-21T05:41:03;15.00;;;8.13;;
15116;SDS011;7659;51.038;13.786;2023-08-21T05:43:29;12.32;;;8.00;;
15116;SDS011;7659;51.038;13.786;2023-08-21T05:45:54;13.38;;;7.63;;
15116;SDS011;7659;51.038;13.786;2023-08-21T05:48:20;13.07;;;8.60;;
15116;SDS011;7659;51.038;13.786;2023-08-21T05:50:51;12.75;;;7.97;;
15116;SDS011;7659;51.038;13.786;2023-08-21T05:53:16;13.30;;;7.82;;
15116;SDS011;7659;51.038;13.786;2023-08-21T05:55:42;13.10;;;8.20;;
15116;SDS011;7659;51.038;13.786;2023-08-21T05:58:09;11.43;;;8.60;;
15116;SDS011;7659;51.038;13.786;2023-08-21T06:00:35;10.50;;;7.70;;
15116;SDS011;7659;51.038;13.786;2023-08-21T06:03:02;9.27;;;7.47;;
15116;SDS011;7659;51.038;13.786;2023-08-21T06:05:45;12.07;;;8.00;;
15116;SDS011;7659;51.038;13.786;2023-08-21T06:08:12;9.80;;;7.82;;
15116;SDS011;7659;51.038;13.786;2023-08-21T06:10:38;13.20;;;8.25;;
15116;SDS011;7659;51.038;13.786;2023-08-21T06:13:04;11.15;;;8.27;;
15116;SDS011;7659;51.038;13.786;2023-08-21T06:15:29;10.68;;;8.13;;
15116;SDS011;7659;51.038;13.786;2023-08-21T06:17:55;11.07;;;8.70;;
15116;SDS011;7659;51.038;13.786;2023-08-21T06:20:20;11.65;;;8.82;;
15116;SDS011;7659;51.038;13.786;2023-08-21T06:22:46;13.82;;;8.30;;
15116;SDS011;7659;51.038;13.786;2023-08-21T06:25:11;10.38;;;8.57;;
15116;SDS011;7659;51.038;13.786;2023-08-21T06:27:38;12.90;;;9.43;;
15116;SDS011;7659;51.038;13.786;2023-08-21T06:30:03;12.65;;;8.82;;
15116;SDS011;7659;51.038;13.786;2023-08-21T06:32:29;15.95;;;8.68;;
15116;SDS011;7659;51.038;13.786;2023-08-21T06:34:55;11.73;;;8.27;;
15116;SDS011;7659;51.038;13.786;2023-08-21T06:37:20;11.18;;;8.23;;
15116;SDS011;7659;51.038;13.786;2023-08-21T06:39:46;13.77;;;9.52;;
15116;SDS011;7659;51.038;13.786;2023-08-21T06:42:11;9.82;;;8.45;;
15116;SDS011;7659;51.038;13.786;2023-08-21T06:44:43;12.68;;;9.18;;
15116;SDS011;7659;51.038;13.786;2023-08-21T06:47:08;9.98;;;8.20;;
15116;SDS011;7659;51.038;13.786;2023-08-21T06:49:34;10.98;;;8.70;;
15116;SDS011;7659;51.038;13.786;2023-08-21T06:51:59;9.15;;;7.28;;
15116;SDS011;7659;51.038;13.786;2023-08-21T06:54:25;11.63;;;8.45;;
15116;SDS011;7659;51.038;13.786;2023-08-21T06:56:50;10.75;;;8.02;;
15116;SDS011;7659;51.038;13.786;2023-08-21T06:59:16;12.52;;;8.20;;
15116;SDS011;7659;51.038;13.786;2023-08-21T07:01:41;11.95;;;8.27;;
15116;SDS011;7659;51.038;13.786;2023-08-21T07:04:07;17.35;;;7.88;;
15116;SDS011;7659;51.038;13.786;2023-08-21T07:06:32;13.80;;;8.20;;
15116;SDS011;7659;51.038;13.786;2023-08-21T07:08:57;7.70;;;6.85;;
15116;SDS011;7659;51.038;13.786;2023-08-21T07:11:23;10.15;;;7.80;;
15116;SDS011;7659;51.038;13.786;2023-08-21T07:13:48;11.43;;;6.85;;
15116;SDS011;7659;51.038;13.786;2023-08-21T07:16:14;14.45;;;8.18;;
15116;SDS011;7659;51.038;13.786;2023-08-21T07:18:39;10.68;;;7.32;;
15116;SDS011;7659;51.038;13.786;2023-08-21T07:21:05;11.90;;;8.52;;
15116;SDS011;7659;51.038;13.786;2023-08-21T07:23:31;15.73;;;8.32;;
15116;SDS011;7659;51.038;13.786;2023-08-21T07:25:57;14.18;;;7.95;;
15116;SDS011;7659;51.038;13.786;2023-08-21T07:28:23;14.02;;;7.78;;
15116;SDS011;7659;51.038;13.786;2023-08-21T07:30:53;12.13;;;7.05;;
15116;SDS011;7659;51.038;13.786;2023-08-21T07:33:19;10.40;;;7.55;;
15116;SDS011;7659;51.038;13.786;2023-08-21T07:35:44;11.65;;;7.25;;
15116;SDS011;7659;51.038;13.786;2023-08-21T07:38:10;14.27;;;7.78;;
15116;SDS011;7659;51.038;13.786;2023-08-21T07:40:35;10.23;;;7.82;;
15116;SDS011;7659;51.038;13.786;2023-08-21T07:43:01;10.27;;;7.90;;
15116;SDS011;7659;51.038;13.786;2023-08-21T07:45:26;11.40;;;7.32;;
15116;SDS011;7659;51.038;13.786;2023-08-21T07:47:52;13.15;;;7.35;;
15116;SDS011;7659;51.038;13.786;2023-08-21T07:50:17;12.25;;;7.28;;
15116;SDS011;7659;51.038;13.786;2023-08-21T07:52:43;14.77;;;7.93;;
15116;SDS011;7659;51.038;13.786;2023-08-21T07:55:08;12.25;;;7.35;;
15116;SDS011;7659;51.038;13.786;2023-08-21T07:57:34;14.60;;;7.50;;
15116;SDS011;7659;51.038;13.786;2023-08-21T07:59:59;13.20;;;8.57;;
15116;SDS011;7659;51.038;13.786;2023-08-21T08:02:24;9.52;;;7.70;;
15116;SDS011;7659;51.038;13.786;2023-08-21T08:04:50;10.45;;;6.68;;
15116;SDS011;7659;51.038;13.786;2023-08-21T08:07:15;9.15;;;6.78;;
15116;SDS011;7659;51.038;13.786;2023-08-21T08:09:41;16.98;;;6.72;;
15116;SDS011;7659;51.038;13.786;2023-08-21T08:12:07;8.82;;;6.85;;
15116;SDS011;7659;51.038;13.786;2023-08-21T08:14:32;11.38;;;7.28;;
15116;SDS011;7659;51.038;13.786;2023-08-21T08:16:58;13.57;;;6.82;;
15116;SDS011;7659;51.038;13.786;2023-08-21T08:19:23;10.00;;;7.35;;
15116;SDS011;7659;51.038;13.786;2023-08-21T08:21:49;10.93;;;7.78;;
15116;SDS011;7659;51.038;13.786;2023-08-21T08:24:14;8.65;;;6.80;;
15116;SDS011;7659;51.038;13.786;2023-08-21T08:26:39;10.90;;;8.05;;
15116;SDS011;7659;51.038;13.786;2023-08-21T08:29:06;13.35;;;8.35;;
15116;SDS011;7659;51.038;13.786;2023-08-21T08:31:32;9.95;;;7.80;;
15116;SDS011;7659;51.038;13.786;2023-08-21T08:33:57;10.95;;;7.50;;
15116;SDS011;7659;51.038;13.786;2023-08-21T08:36:23;13.77;;;7.32;;
15116;SDS011;7659;51.038;13.786;2023-08-21T08:38:48;12.90;;;7.93;;
15116;SDS011;7659;51.038;13.786;2023-08-21T08:41:17;12.23;;;7.32;;
15116;SDS011;7659;51.038;13.786;2023-08-21T08:43:44;11.95;;;8.63;;
15116;SDS011;7659;51.038;13.786;2023-08-21T08:46:10;13.27;;;9.27;;
15116;SDS011;7659;51.038;13.786;2023-08-21T08:48:36;11.23;;;8.50;;
15116;SDS011;7659;51.038;13.786;2023-08-21T08:51:02;11.48;;;7.55;;
15116;SDS011;7659;51.038;13.786;2023-08-21T08:53:31;10.07;;;8.70;;
15116;SDS011;7659;51.038;13.786;2023-08-21T08:55:57;12.75;;;9.10;;
15116;SDS011;7659;51.038;13.786;2023-08-21T08:58:22;12.95;;;8.43;;
15116;SDS011;7659;51.038;13.786;2023-08-21T09:00:48;9.95;;;8.27;;
15116;SDS011;7659;51.038;13.786;2023-08-21T09:03:13;15.50;;;9.13;;
15116;SDS011;7659;51.038;13.786;2023-08-21T09:05:41;13.65;;;10.57;;
15116;SDS011;7659;51.038;13.786;2023-08-21T09:10:32;9.07;;;7.93;;
15116;SDS011;7659;51.038;13.786;2023-08-21T09:12:57;12.63;;;7.25;;
15116;SDS011;7659;51.038;13.786;2023-08-21T09:15:29;13.00;;;7.63;;
15116;SDS011;7659;51.038;13.786;2023-08-21T09:17:55;10.35;;;7.72;;
15116;SDS011;7659;51.038;13.786;2023-08-21T09:20:20;11.13;;;7.65;;
15116;SDS011;7659;51.038;13.786;2023-08-21T09:22:55;14.85;;;7.18;;
15116;SDS011;7659;51.038;13.786;2023-08-21T09:25:22;11.80;;;8.05;;
15116;SDS011;7659;51.038;13.786;2023-08-21T09:27:51;9.48;;;6.88;;
15116;SDS011;7659;51.038;13.786;2023-08-21T09:30:16;9.27;;;6.32;;
15116;SDS011;7659;51.038;13.786;2023-08-21T09:32:58;9.68;;;7.82;;
15116;SDS011;7659;51.038;13.786;2023-08-21T09:35:25;8.82;;;6.53;;
15116;SDS011;7659;51.038;13.786;2023-08-21T09:37:51;13.10;;;6.47;;
15116;SDS011;7659;51.038;13.786;2023-08-21T09:40:18;12.57;;;6.57;;
15116;SDS011;7659;51.038;13.786;2023-08-21T09:42:44;11.05;;;5.78;;
15116;SDS011;7659;51.038;13.786;2023-08-21T09:45:09;9.93;;;5.75;;
15116;SDS011;7659;51.038;13.786;2023-08-21T09:47:35;6.68;;;5.80;;
15116;SDS011;7659;51.038;13.786;2023-08-21T09:50:02;23.50;;;6.30;;
15116;SDS011;7659;51.038;13.786;2023-08-21T09:52:28;14.07;;;5.45;;
15116;SDS011;7659;51.038;13.786;2023-08-21T09:55:13;15.23;;;6.03;;
15116;SDS011;7659;51.038;13.786;2023-08-21T09:57:39;10.57;;;6.05;;
15116;SDS011;7659;51.038;13.786;2023-08-21T10:00:06;8.63;;;5.60;;
15116;SDS011;7659;51.038;13.786;2023-08-21T10:02:43;11.10;;;5.40;;
15116;SDS011;7659;51.038;13.786;2023-08-21T10:05:13;8.75;;;5.45;;
15116;SDS011;7659;51.038;13.786;2023-08-21T10:07:39;9.82;;;5.80;;
15116;SDS011;7659;51.038;13.786;2023-08-21T10:10:06;14.00;;;5.63;;
15116;SDS011;7659;51.038;13.786;2023-08-21T10:12:32;8.27;;;5.03;;
15116;SDS011;7659;51.038;13.786;2023-08-21T10:14:57;10.43;;;5.53;;
15116;SDS011;7659;51.038;13.786;2023-08-21T10:17:23;6.78;;;4.75;;
15116;SDS011;7659;51.038;13.786;2023-08-21T10:19:51;5.50;;;4.78;;
15116;SDS011;7659;51.038;13.786;2023-08-21T10:23:01;6.10;;;4.75;;
15116;SDS011;7659;51.038;13.786;2023-08-21T10:25:16;8.45;;;5.20;;
15116;SDS011;7659;51.038;13.786;2023-08-21T10:27:43;7.80;;;4.30;;
15116;SDS011;7659;51.038;13.786;2023-08-21T10:30:15;6.13;;;4.18;;
15116;SDS011;7659;51.038;13.786;2023-08-21T10:32:47;8.98;;;4.18;;
15116;SDS011;7659;51.038;13.786;2023-08-21T10:35:18;5.15;;;4.00;;
15116;SDS011;7659;51.038;13.786;2023-08-21T10:40:27;4.05;;;3.63;;
15116;SDS011;7659;51.038;13.786;2023-08-21T10:42:53;8.73;;;3.85;;
15116;SDS011;7659;51.038;13.786;2023-08-21T10:45:19;5.38;;;3.80;;
15116;SDS011;7659;51.038;13.786;2023-08-21T10:47:44;8.43;;;3.60;;
15116;SDS011;7659;51.038;13.786;2023-08-21T10:50:12;10.00;;;4.00;;
15116;SDS011;7659;51.038;13.786;2023-08-21T10:52:41;8.80;;;4.00;;
15116;SDS011;7659;51.038;13.786;2023-08-21T10:55:13;14.95;;;4.07;;
15116;SDS011;7659;51.038;13.786;2023-08-21T10:57:39;10.60;;;4.07;;
15116;SDS011;7659;51.038;13.786;2023-08-21T11:00:09;5.25;;;3.75;;
15116;SDS011;7659;51.038;13.786;2023-08-21T11:02:35;6.60;;;4.32;;
15116;SDS011;7659;51.038;13.786;2023-08-21T11:05:01;6.10;;;3.90;;
15116;SDS011;7659;51.038;13.786;2023-08-21T11:07:28;6.90;;;3.60;;
15116;SDS011;7659;51.038;13.786;2023-08-21T11:09:54;5.28;;;3.95;;
15116;SDS011;7659;51.038;13.786;2023-08-21T11:12:20;5.40;;;3.83;;
15116;SDS011;7659;51.038;13.786;2023-08-21T11:14:46;5.80;;;4.20;;
15116;SDS011;7659;51.038;13.786;2023-08-21T11:17:12;8.80;;;4.05;;
15116;SDS011;7659;51.038;13.786;2023-08-21T11:19:37;12.10;;;4.10;;
15116;SDS011;7659;51.038;13.786;2023-08-21T11:22:03;8.80;;;4.07;;
15116;SDS011;7659;51.038;13.786;2023-08-21T11:26:58;7.72;;;3.47;;
15116;SDS011;7659;51.038;13.786;2023-08-21T11:29:24;6.78;;;3.90;;
15116;SDS011;7659;51.038;13.786;2023-08-21T11:31:49;5.53;;;3.55;;
15116;SDS011;7659;51.038;13.786;2023-08-21T11:34:18;4.68;;;3.42;;
15116;SDS011;7659;51.038;13.786;2023-08-21T11:36:44;6.45;;;3.70;;
15116;SDS011;7659;51.038;13.786;2023-08-21T11:39:09;7.72;;;4.05;;
15116;SDS011;7659;51.038;13.786;2023-08-21T11:41:56;7.50;;;3.83;;
15116;SDS011;7659;51.038;13.786;2023-08-21T11:44:22;6.07;;;3.63;;
15116;SDS011;7659;51.038;13.786;2023-08-21T11:46:50;8.10;;;4.18;;
15116;SDS011;7659;51.038;13.786;2023-08-21T11:49:15;3.95;;;3.50;;
15116;SDS011;7659;51.038;13.786;2023-08-21T11:51:41;9.70;;;4.00;;
15116;SDS011;7659;51.038;13.786;2023-08-21T11:54:06;5.40;;;4.07;;
15116;SDS011;7659;51.038;13.786;2023-08-21T11:56:32;10.05;;;3.75;;
15116;SDS011;7659;51.038;13.786;2023-08-21T11:58:57;14.95;;;4.10;;
15116;SDS011;7659;51.038;13.786;2023-08-21T12:01:26;9.40;;;4.70;;
15116;SDS011;7659;51.038;13.786;2023-08-21T12:03:51;6.13;;;4.22;;
15116;SDS011;7659;51.038;13.786;2023-08-21T12:06:20;8.10;;;3.97;;
15116;SDS011;7659;51.038;13.786;2023-08-21T12:08:46;9.93;;;4.10;;
15116;SDS011;7659;51.038;13.786;2023-08-21T12:11:12;5.90;;;3.78;;
15116;SDS011;7659;51.038;13.786;2023-08-21T12:13:37;6.82;;;4.13;;
15116;SDS011;7659;51.038;13.786;2023-08-21T12:16:03;5.18;;;3.97;;
15116;SDS011;7659;51.038;13.786;2023-08-21T12:18:29;5.75;;;3.92;;
15116;SDS011;7659;51.038;13.786;2023-08-21T12:20:54;8.30;;;4.43;;
15116;SDS011;7659;51.038;13.786;2023-08-21T12:23:20;9.82;;;4.15;;
15116;SDS011;7659;51.038;13.786;2023-08-21T12:25:45;6.57;;;3.90;;
15116;SDS011;7659;51.038;13.786;2023-08-21T12:28:11;7.43;;;4.32;;
15116;SDS011;7659;51.038;13.786;2023-08-21T12:30:37;8.88;;;4.20;;
15116;SDS011;7659;51.038;13.786;2023-08-21T12:33:02;9.93;;;4.07;;
15116;SDS011;7659;51.038;13.786;2023-08-21T12:35:28;5.72;;;3.60;;
15116;SDS011;7659;51.038;13.786;2023-08-21T12:37:57;6.80;;;4.05;;
15116;SDS011;7659;51.038;13.786;2023-08-21T12:40:23;8.90;;;4.00;;
15116;SDS011;7659;51.038;13.786;2023-08-21T12:42:48;6.07;;;3.72;;
15116;SDS011;7659;51.038;13.786;2023-08-21T12:45:15;6.18;;;3.75;;
15116;SDS011;7659;51.038;13.786;2023-08-21T12:47:40;10.48;;;4.00;;
15116;SDS011;7659;51.038;13.786;2023-08-21T12:50:06;5.10;;;3.70;;
15116;SDS011;7659;51.038;13.786;2023-08-21T12:52:32;12.20;;;3.60;;
15116;SDS011;7659;51.038;13.786;2023-08-21T12:54:57;10.65;;;4.13;;
15116;SDS011;7659;51.038;13.786;2023-08-21T12:57:24;8.77;;;3.80;;
15116;SDS011;7659;51.038;13.786;2023-08-21T12:59:51;7.18;;;4.05;;
15116;SDS011;7659;51.038;13.786;2023-08-21T13:02:17;11.13;;;3.75;;
15116;SDS011;7659;51.038;13.786;2023-08-21T13:04:42;6.82;;;3.15;;
15116;SDS011;7659;51.038;13.786;2023-08-21T13:07:08;6.93;;;3.40;;
15116;SDS011;7659;51.038;13.786;2023-08-21T13:09:33;10.73;;;3.53;;
15116;SDS011;7659;51.038;13.786;2023-08-21T13:12:00;6.72;;;3.13;;
15116;SDS011;7659;51.038;13.786;2023-08-21T13:14:25;5.15;;;2.83;;
15116;SDS011;7659;51.038;13.786;2023-08-21T13:16:51;3.28;;;2.65;;
15116;SDS011;7659;51.038;13.786;2023-08-21T13:19:16;3.75;;;2.33;;
15116;SDS011;7659;51.038;13.786;2023-08-21T13:21:42;9.10;;;2.75;;
15116;SDS011;7659;51.038;13.786;2023-08-21T13:24:08;7.15;;;2.53;;
15116;SDS011;7659;51.038;13.786;2023-08-21T13:26:33;5.55;;;2.78;;
15116;SDS011;7659;51.038;13.786;2023-08-21T13:28:59;5.32;;;2.42;;
15116;SDS011;7659;51.038;13.786;2023-08-21T13:31:25;3.17;;;2.50;;
15116;SDS011;7659;51.038;13.786;2023-08-21T13:33:50;5.18;;;2.42;;
15116;SDS011;7659;51.038;13.786;2023-08-21T13:36:16;4.57;;;2.45;;
15116;SDS011;7659;51.038;13.786;2023-08-21T13:38:42;8.25;;;2.95;;
15116;SDS011;7659;51.038;13.786;2023-08-21T13:41:08;6.65;;;2.70;;
15116;SDS011;7659;51.038;13.786;2023-08-21T13:43:35;5.53;;;2.38;;
15116;SDS011;7659;51.038;13.786;2023-08-21T13:46:01;4.25;;;2.60;;
15116;SDS011;7659;51.038;13.786;2023-08-21T13:48:26;7.40;;;2.70;;
15116;SDS011;7659;51.038;13.786;2023-08-21T13:50:52;5.30;;;2.60;;
15116;SDS011;7659;51.038;13.786;2023-08-21T13:53:17;9.00;;;3.00;;
15116;SDS011;7659;51.038;13.786;2023-08-21T13:55:43;4.15;;;3.35;;
15116;SDS011;7659;51.038;13.786;2023-08-21T13:58:08;4.97;;;3.88;;
15116;SDS011;7659;51.038;13.786;2023-08-21T14:00:34;5.68;;;2.85;;
15116;SDS011;7659;51.038;13.786;2023-08-21T14:03:00;6.90;;;2.80;;
15116;SDS011;7659;51.038;13.786;2023-08-21T14:05:25;8.02;;;2.40;;
15116;SDS011;7659;51.038;13.786;2023-08-21T14:07:52;5.95;;;2.60;;
15116;SDS011;7659;51.038;13.786;2023-08-21T14:10:18;9.55;;;2.70;;
15116;SDS011;7659;51.038;13.786;2023-08-21T14:12:43;4.40;;;2.80;;
15116;SDS011;7659;51.038;13.786;2023-08-21T14:15:09;4.85;;;2.65;;
15116;SDS011;7659;51.038;13.786;2023-08-21T14:17:35;5.65;;;2.63;;
15116;SDS011;7659;51.038;13.786;2023-08-21T14:20:01;3.00;;;2.45;;
15116;SDS011;7659;51.038;13.786;2023-08-21T14:22:27;3.50;;;2.50;;
15116;SDS011;7659;51.038;13.786;2023-08-21T14:24:53;4.03;;;2.75;;
15116;SDS011;7659;51.038;13.786;2023-08-21T14:27:18;5.15;;;2.70;;
15116;SDS011;7659;51.038;13.786;2023-08-21T14:29:44;5.38;;;3.20;;
15116;SDS011;7659;51.038;13.786;2023-08-21T14:32:09;5.80;;;3.70;;
15116;SDS011;7659;51.038;13.786;2023-08-21T14:34:35;5.82;;;3.85;;
15116;SDS011;7659;51.038;13.786;2023-08-21T14:37:00;4.50;;;3.63;;
15116;SDS011;7659;51.038;13.786;2023-08-21T14:39:26;5.95;;;3.05;;
15116;SDS011;7659;51.038;13.786;2023-08-21T14:41:58;4.25;;;2.90;;
15116;SDS011;7659;51.038;13.786;2023-08-21T14:46:49;8.30;;;2.50;;
15116;SDS011;7659;51.038;13.786;2023-08-21T14:49:15;5.03;;;2.40;;